Time;durP1;ratioP1;P1;durP2;ratioP2;P2;SDS_P1;SDS_P2;PMS_P1;PMS_P2;Temp;Humidity;BMP_temperature;BMP_pressure;BME280_temperature;BME280_humidity;BME280_pressure;Samples;Min_cycle;Max_cycle;Signal;HPM_P1;HPM_P2
2022/10/23 00:01:17;;;;;;;18.77;7.70;;;;;;;14.72;100.00;99874.56;1944021;72;26184;-65
2022/10/23 00:06:49;;;;;;;15.73;7.63;;;;;;;14.78;100.00;99867.03;2056685;69;26080;-65
2022/10/23 00:09:22;;;;;;;20.03;7.03;;;;;;;14.75;100.00;99869.69;2021878;70;24684;-66
2022/10/23 00:11:53;;;;;;;16.07;6.77;;;;;;;14.80;100.00;99868.11;1939302;73;26194;-65
2022/10/23 00:14:24;;;;;;;15.80;6.90;;;;;;;14.86;100.00;99860.57;1935591;74;26251;-65
2022/10/23 00:16:54;;;;;;;17.67;6.73;;;;;;;14.86;100.00;99860.57;1977897;72;26744;-65
2022/10/23 00:22:23;;;;;;;21.53;7.37;;;;;;;14.99;100.00;99846.09;2055480;69;28112;-65
2022/10/23 00:24:53;;;;;;;16.30;6.47;;;;;;;14.96;100.00;99845.39;2015341;70;24150;-64
2022/10/23 00:27:23;;;;;;;16.93;6.27;;;;;;;14.96;100.00;99845.39;1971230;72;27323;-63
2022/10/23 00:29:54;;;;;;;12.53;5.20;;;;;;;14.97;100.00;99847.03;1923332;74;24168;-62
2022/10/23 00:32:24;;;;;;;12.57;5.83;;;;;;;14.99;100.00;99839.93;1979151;72;24625;-63
2022/10/23 00:34:54;;;;;;;21.50;6.30;;;;;;;15.02;100.00;99832.25;1915050;72;26848;-63
2022/10/23 00:37:25;;;;;;;17.00;6.33;;;;;;;15.03;100.00;99828.88;1916963;72;24206;-65
2022/10/23 00:39:55;;;;;;;14.87;6.07;;;;;;;15.03;100.00;99828.88;1973026;72;24182;-65
2022/10/23 00:45:30;;;;;;;14.47;5.93;;;;;;;15.03;100.00;99810.70;2055406;69;28133;-64
2022/10/23 00:47:59;;;;;;;12.27;5.57;;;;;;;15.03;100.00;99810.70;2023329;71;24111;-63
2022/10/23 00:50:32;;;;;;;14.23;6.20;;;;;;;15.06;100.00;99813.41;2023177;71;26224;-63
2022/10/23 00:53:04;;;;;;;11.57;5.40;;;;;;;15.09;100.00;99812.72;1942424;73;26737;-63
2022/10/23 00:55:37;;;;;;;13.10;5.60;;;;;;;15.09;100.00;99812.72;1924698;74;24130;-63
2022/10/23 00:58:08;;;;;;;14.50;6.87;;;;;;;15.12;100.00;99785.47;1942750;72;24101;-63
2022/10/23 01:00:45;;;;;;;11.47;4.80;;;;;;;15.13;100.00;99790.73;1943788;72;24120;-63
2022/10/23 01:03:18;;;;;;;10.63;5.80;;;;;;;15.13;100.00;99790.73;1979214;72;24808;-63
2022/10/23 01:05:51;;;;;;;13.03;5.17;;;;;;;15.19;100.00;99783.75;1979104;72;26657;-63
2022/10/23 01:08:25;;;;;;;9.73;5.13;;;;;;;15.19;100.00;99783.75;1979174;72;24700;-62
2022/10/23 01:10:59;;;;;;;10.50;5.23;;;;;;;15.18;100.00;99780.73;1978892;72;26257;-63
2022/10/23 01:13:34;;;;;;;12.33;5.70;;;;;;;15.20;100.00;99781.77;1910045;74;24608;-63
2022/10/23 01:19:11;;;;;;;11.60;5.60;;;;;;;15.20;100.00;99763.02;2055423;69;26059;-64
2022/10/23 01:21:46;;;;;;;14.43;6.03;;;;;;;15.12;100.00;99752.72;1977891;72;26208;-63
2022/10/23 01:24:23;;;;;;;10.97;5.97;;;;;;;15.12;100.00;99752.72;1977705;72;26219;-63
2022/10/23 01:27:14;;;;;;;18.63;6.47;;;;;;;15.12;100.00;99754.70;1977212;72;26238;-64
2022/10/23 01:29:48;;;;;;;13.03;6.43;;;;;;;15.08;100.00;99725.20;1943911;74;26175;-63
2022/10/23 01:32:22;;;;;;;12.80;6.37;;;;;;;15.08;100.00;99725.20;1924704;74;24596;-63
2022/10/23 01:34:55;;;;;;;15.60;6.87;;;;;;;15.05;100.00;99720.30;1973332;72;26175;-63
2022/10/23 01:37:28;;;;;;;12.10;6.50;;;;;;;15.03;100.00;99724.83;1979110;72;26240;-63
2022/10/23 01:40:01;;;;;;;14.67;6.43;;;;;;;15.06;100.00;99714.13;1979202;72;24665;-63
2022/10/23 01:42:35;;;;;;;13.53;6.50;;;;;;;15.06;100.00;99714.13;1979243;72;24167;-63
2022/10/23 01:45:08;;;;;;;15.10;6.50;;;;;;;15.05;100.00;99704.92;1910135;74;26193;-63
2022/10/23 01:47:41;;;;;;;12.67;6.63;;;;;;;15.05;100.00;99693.73;1889413;74;26724;-63
2022/10/23 01:50:14;;;;;;;14.03;6.40;;;;;;;15.09;100.00;99691.06;1942499;74;24116;-63
2022/10/23 01:52:44;;;;;;;11.57;7.00;;;;;;;15.05;100.00;99682.55;1979059;72;26164;-63
2022/10/23 01:55:16;;;;;;;11.70;6.30;;;;;;;15.06;100.00;99681.97;1972818;72;26233;-63
2022/10/23 02:00:47;;;;;;;11.23;7.27;;;;;;;15.04;100.00;99667.75;2048399;69;27655;-64
2022/10/23 02:03:20;;;;;;;16.17;6.60;;;;;;;15.01;100.00;99676.83;2007404;69;24678;-63
2022/10/23 02:05:50;;;;;;;16.67;6.67;;;;;;;15.03;100.00;99667.50;1897340;74;24174;-64
2022/10/23 02:08:21;;;;;;;15.03;6.13;;;;;;;15.02;100.00;99587.56;1907967;75;24759;-63
2022/10/23 02:10:54;;;;;;;11.23;6.47;;;;;;;15.02;100.00;99587.56;1977999;70;26312;-63
2022/10/23 02:13:27;;;;;;;10.23;6.07;;;;;;;15.03;100.00;99598.98;1977177;72;24187;-63
2022/10/23 02:19:03;;;;;;;15.20;7.27;;;;;;;15.02;100.00;99607.71;2055558;69;26019;-63
2022/10/23 02:21:36;;;;;;;14.70;6.43;;;;;;;15.05;100.00;99628.02;1979092;72;26178;-63
2022/10/23 02:24:10;;;;;;;13.63;6.30;;;;;;;15.05;100.00;99628.02;1944186;73;24134;-63
2022/10/23 02:26:42;;;;;;;13.27;6.93;;;;;;;15.04;100.00;99620.78;1924865;74;26656;-63
2022/10/23 02:29:15;;;;;;;18.13;6.47;;;;;;;15.02;100.00;99624.48;1979074;72;26178;-63
2022/10/23 02:31:46;;;;;;;13.43;6.13;;;;;;;14.99;100.00;99611.20;1944398;72;26192;-63
2022/10/23 02:34:17;;;;;;;13.57;5.97;;;;;;;15.01;100.00;99606.92;1944309;72;26172;-63
2022/10/23 02:36:47;;;;;;;14.67;6.03;;;;;;;15.02;100.00;99590.94;1942757;72;24157;-63
2022/10/23 02:39:18;;;;;;;14.03;5.53;;;;;;;15.06;100.00;99583.48;1944013;74;26274;-63
2022/10/23 02:41:51;;;;;;;13.83;6.27;;;;;;;15.06;100.00;99583.48;1863346;74;24200;-63
2022/10/23 02:44:36;;;;;;;11.27;5.67;;;;;;;15.09;100.00;99582.00;1908647;74;24629;-63
2022/10/23 02:47:18;;;;;;;11.83;6.17;;;;;;;15.09;100.00;99582.00;1943546;72;24132;-63
2022/10/23 02:49:53;;;;;;;12.80;6.43;;;;;;;15.02;100.00;99555.40;1979087;72;24178;-63
2022/10/23 02:52:26;;;;;;;12.63;6.33;;;;;;;15.02;100.00;99555.40;1978868;72;26188;-63
2022/10/23 02:55:12;;;;;;;11.47;6.40;;;;;;;14.99;100.00;99547.71;1943921;72;26173;-63
2022/10/23 02:57:46;;;;;;;10.17;6.53;;;;;;;15.01;100.00;99547.38;1979184;72;24136;-63
2022/10/23 03:00:18;;;;;;;16.57;6.80;;;;;;;14.95;100.00;99535.59;1944061;72;24121;-63
2022/10/23 03:02:52;;;;;;;15.23;6.80;;;;;;;15.00;100.00;99530.36;1944313;72;26825;-63
2022/10/23 03:05:25;;;;;;;18.67;7.13;;;;;;;15.00;100.00;99530.36;1979645;72;24116;-63
2022/10/23 03:07:55;;;;;;;17.47;7.70;;;;;;;14.99;100.00;99515.56;1979142;72;26160;-64
2022/10/23 03:10:25;;;;;;;13.30;6.87;;;;;;;14.97;100.00;99508.08;1944540;72;26168;-63
2022/10/23 03:12:56;;;;;;;11.23;7.93;;;;;;;14.99;100.00;99499.36;1944007;72;24618;-63
2022/10/23 03:18:27;;;;;;;18.13;7.97;;;;;;;15.00;100.00;99456.26;2046423;68;27285;-77
2022/10/23 03:23:58;;;;;;;15.20;7.73;;;;;;;14.99;100.00;99462.43;2055765;69;28123;-75
2022/10/23 03:29:26;;;;;;;16.67;7.27;;;;;;;14.99;100.00;99448.45;2044472;69;25368;-77
2022/10/23 03:31:56;;;;;;;13.53;7.70;;;;;;;14.99;100.00;99446.23;2014610;71;26535;-76
2022/10/23 03:34:26;;;;;;;14.77;6.93;;;;;;;15.01;100.00;99439.72;1968183;70;26204;-76
2022/10/23 03:36:56;;;;;;;13.87;6.90;;;;;;;15.00;100.00;99426.32;1921767;73;26315;-75
2022/10/23 03:42:24;;;;;;;11.23;6.77;;;;;;;15.03;100.00;99389.84;2038615;69;28726;-76
2022/10/23 03:44:55;;;;;;;10.57;6.90;;;;;;;14.99;100.00;99378.55;1967704;69;26504;-77
2022/10/23 03:47:25;;;;;;;12.40;6.30;;;;;;;15.02;100.00;99382.61;1964984;70;24144;-77
2022/10/23 03:49:55;;;;;;;11.50;6.33;;;;;;;15.02;100.00;99381.21;2004952;71;26236;-77
2022/10/23 03:52:25;;;;;;;11.13;6.23;;;;;;;15.06;100.00;99375.15;1986516;71;26742;-77
2022/10/23 03:54:55;;;;;;;9.30;5.60;;;;;;;15.06;100.00;99375.15;1927953;72;26221;-77
2022/10/23 03:57:26;;;;;;;11.80;6.07;;;;;;;15.04;100.00;99366.31;1969263;71;26171;-77
2022/10/23 03:59:56;;;;;;;11.47;5.77;;;;;;;15.05;100.00;99356.77;1987245;69;26658;-77
2022/10/23 04:05:24;;;;;;;12.60;5.50;;;;;;;15.05;100.00;99331.59;2058645;69;26014;-77
2022/10/23 04:07:55;;;;;;;6.57;5.10;;;;;;;15.08;100.00;99344.87;2017736;70;24138;-77
2022/10/23 04:10:25;;;;;;;10.07;5.33;;;;;;;15.11;100.00;99363.73;1957646;71;24950;-78
2022/10/23 04:12:55;;;;;;;10.10;5.50;;;;;;;15.09;100.00;99387.05;1924510;74;26686;-77
2022/10/23 04:15:26;;;;;;;9.87;5.77;;;;;;;15.12;100.00;99428.87;1961008;72;26884;-76
2022/10/23 04:17:56;;;;;;;17.70;5.70;;;;;;;15.06;100.00;99398.92;1916598;73;26771;-77
2022/10/23 04:20:26;;;;;;;10.80;5.80;;;;;;;15.03;100.00;99370.27;1916514;73;24113;-76
2022/10/23 04:22:56;;;;;;;9.23;5.47;;;;;;;15.01;100.00;99381.00;1911854;74;24114;-77
2022/10/23 04:28:27;;;;;;;9.07;4.97;;;;;;;14.99;100.00;99379.12;2041713;69;28005;-75
2022/10/23 04:30:58;;;;;;;6.60;3.97;;;;;;;14.97;100.00;99390.65;2013710;70;26215;-76
2022/10/23 04:33:28;;;;;;;4.93;3.80;;;;;;;14.97;100.00;99381.47;1951112;71;24681;-76
2022/10/23 04:38:56;;;;;;;5.30;3.70;;;;;;;14.98;100.00;99380.28;2055476;69;28376;-75
2022/10/23 04:41:27;;;;;;;9.70;4.57;;;;;;;14.98;100.00;99380.28;2017340;70;26166;-75
2022/10/23 04:43:57;;;;;;;8.67;4.53;;;;;;;14.98;100.00;99370.50;1959162;71;24110;-75
2022/10/23 04:46:27;;;;;;;6.60;4.47;;;;;;;14.98;100.00;99370.50;2023320;71;26166;-76
2022/10/23 04:48:57;;;;;;;8.93;4.87;;;;;;;15.00;100.00;99374.59;1987439;71;26163;-75
2022/10/23 04:51:27;;;;;;;7.67;5.20;;;;;;;14.97;100.00;99363.30;1958304;71;26533;-75
2022/10/23 04:53:58;;;;;;;9.93;4.47;;;;;;;14.98;100.00;99355.13;1956689;71;26224;-75
2022/10/23 04:56:28;;;;;;;6.90;4.20;;;;;;;15.00;100.00;99342.44;1923370;74;26220;-75
2022/10/23 04:58:58;;;;;;;6.77;4.63;;;;;;;14.99;100.00;99338.58;1888207;72;26300;-75
2022/10/23 05:01:28;;;;;;;8.43;5.00;;;;;;;15.00;100.00;99337.42;1855611;74;24899;-75
2022/10/23 05:03:59;;;;;;;6.53;5.13;;;;;;;15.00;100.00;99330.44;1913003;74;24222;-75
2022/10/23 05:06:30;;;;;;;9.57;5.30;;;;;;;14.95;100.00;99329.27;1906115;74;24219;-75
2022/10/23 05:09:00;;;;;;;8.33;4.97;;;;;;;15.00;100.00;99322.86;1977060;72;26910;-75
2022/10/23 05:11:30;;;;;;;10.13;4.57;;;;;;;15.00;100.00;99329.03;1977562;72;24258;-75
2022/10/23 05:14:00;;;;;;;5.67;4.50;;;;;;;14.97;100.00;99334.73;1937829;74;26167;-75
2022/10/23 05:19:34;;;;;;;9.67;4.73;;;;;;;15.00;100.00;99329.86;2055327;69;25126;-75
2022/10/23 05:22:06;;;;;;;9.03;4.70;;;;;;;15.00;100.00;99324.27;2021648;71;26303;-75
2022/10/23 05:24:36;;;;;;;8.53;5.03;;;;;;;15.00;100.00;99324.27;1889609;74;26213;-75
2022/10/23 05:27:06;;;;;;;8.60;5.00;;;;;;;15.00;100.00;99338.82;1979275;72;26758;-75
2022/10/23 05:29:36;;;;;;;11.67;5.00;;;;;;;14.99;100.00;99308.64;1944968;72;26176;-75
2022/10/23 05:32:09;;;;;;;6.27;4.60;;;;;;;14.99;100.00;99308.64;1890080;72;26257;-75
2022/10/23 05:34:41;;;;;;;7.00;4.30;;;;;;;14.98;100.00;99315.98;1943472;72;24159;-75
2022/10/23 05:40:13;;;;;;;4.63;4.03;;;;;;;14.97;100.00;99321.36;2055429;69;28045;-76
2022/10/23 05:42:43;;;;;;;9.50;4.03;;;;;;;15.00;100.00;99337.42;1979708;72;24548;-77
2022/10/23 05:45:13;;;;;;;5.83;3.83;;;;;;;15.02;100.00;99321.09;1944827;72;24120;-77
2022/10/23 05:47:46;;;;;;;6.03;4.03;;;;;;;15.11;100.00;99316.77;1979233;72;24802;-77
2022/10/23 05:50:17;;;;;;;6.00;4.30;;;;;;;15.11;100.00;99316.77;1979377;72;26485;-78
2022/10/23 05:52:50;;;;;;;6.63;4.33;;;;;;;15.02;100.00;99298.14;1944308;72;24606;-77
2022/10/23 05:55:20;;;;;;;6.50;4.50;;;;;;;15.02;100.00;99298.14;1917246;72;24199;-78
2022/10/23 05:57:50;;;;;;;5.53;4.17;;;;;;;15.04;100.00;99297.80;1978705;72;26986;-77
2022/10/23 06:00:22;;;;;;;6.17;4.37;;;;;;;15.07;100.00;99300.47;1886577;72;26734;-77
2022/10/23 06:02:52;;;;;;;9.17;4.83;;;;;;;15.02;100.00;99308.52;1979593;72;24129;-75
2022/10/23 06:05:22;;;;;;;8.13;4.60;;;;;;;15.02;100.00;99308.52;1979388;72;24190;-77
2022/10/23 06:07:55;;;;;;;11.33;4.37;;;;;;;15.04;100.00;99308.41;1944566;72;24257;-77
2022/10/23 06:10:25;;;;;;;8.57;4.50;;;;;;;15.04;100.00;99245.49;1979380;72;26156;-78
2022/10/23 06:12:55;;;;;;;8.23;4.07;;;;;;;15.02;100.00;99200.86;1979267;72;26176;-77
2022/10/23 06:18:23;;;;;;;11.03;4.23;;;;;;;14.96;100.00;99226.06;2056717;69;25982;-76
2022/10/23 06:20:53;;;;;;;8.90;4.57;;;;;;;14.98;100.00;99248.88;2020029;70;26191;-75
2022/10/23 06:26:23;;;;;;;6.03;4.40;;;;;;;14.99;100.00;99228.96;2055014;69;28546;-77
2022/10/23 06:28:53;;;;;;;5.63;5.07;;;;;;;14.98;100.00;99255.86;2004635;69;24187;-77
2022/10/23 06:31:25;;;;;;;9.80;4.40;;;;;;;14.98;100.00;99255.86;1957472;71;24316;-77
2022/10/23 06:33:56;;;;;;;5.83;4.87;;;;;;;14.85;100.00;99251.47;1925612;73;24216;-77
2022/10/23 06:36:26;;;;;;;7.20;5.70;;;;;;;14.97;100.00;99273.83;1966524;72;24171;-77
2022/10/23 06:41:54;;;;;;;24.37;22.37;;;;;;;14.95;100.00;99300.73;2043532;69;26557;-76
2022/10/23 06:44:25;;;;;;;7.67;6.37;;;;;;;14.86;100.00;99300.63;1960828;72;24197;-76
2022/10/23 06:46:55;;;;;;;10.07;4.30;;;;;;;14.88;100.00;99292.13;2009981;69;24154;-74
2022/10/23 06:49:26;;;;;;;7.80;4.30;;;;;;;14.85;100.00;99295.61;1973957;72;26343;-74
2022/10/23 06:51:56;;;;;;;8.40;3.63;;;;;;;14.85;100.00;99295.61;1971131;72;24729;-76
2022/10/23 06:54:27;;;;;;;6.40;4.17;;;;;;;14.88;100.00;99276.76;1883688;74;24173;-76
2022/10/23 06:56:58;;;;;;;6.33;3.70;;;;;;;14.88;100.00;99276.76;1940193;72;24166;-77
2022/10/23 06:59:28;;;;;;;6.27;3.70;;;;;;;14.89;100.00;99282.56;1955997;71;24841;-74
2022/10/23 07:01:59;;;;;;;3.97;3.57;;;;;;;14.88;100.00;99278.73;1937051;72;24170;-74
2022/10/23 07:04:29;;;;;;;8.23;4.23;;;;;;;14.87;100.00;99272.91;1966345;71;26262;-73
2022/10/23 07:07:00;;;;;;;7.77;4.20;;;;;;;14.90;100.00;99265.20;2007666;69;24273;-75
2022/10/23 07:09:31;;;;;;;10.53;4.73;;;;;;;14.84;100.00;99286.20;1970208;71;24202;-75
2022/10/23 07:12:01;;;;;;;7.63;3.90;;;;;;;14.87;100.00;99263.94;2001553;70;24666;-75
2022/10/23 07:14:31;;;;;;;7.33;4.07;;;;;;;14.84;100.00;99260.46;1973820;71;26221;-75
2022/10/23 07:20:00;;;;;;;10.77;4.77;;;;;;;14.91;100.00;99322.17;2056002;69;28166;-74
2022/10/23 07:22:30;;;;;;;10.67;5.03;;;;;;;14.91;100.00;99322.17;1979895;72;26169;-74
2022/10/23 07:25:00;;;;;;;7.87;4.93;;;;;;;14.91;100.00;99319.95;1979394;72;26297;-76
2022/10/23 07:27:31;;;;;;;6.80;4.90;;;;;;;14.92;100.00;99331.37;1978527;72;26207;-74
2022/10/23 07:30:01;;;;;;;11.40;5.03;;;;;;;14.92;100.00;99329.40;1979399;72;26684;-73
2022/10/23 07:32:32;;;;;;;9.57;5.07;;;;;;;14.97;100.00;99314.37;1904238;74;26823;-75
2022/10/23 07:35:02;;;;;;;9.50;5.43;;;;;;;14.94;100.00;99299.67;1943423;74;27067;-75
2022/10/23 07:37:32;;;;;;;10.83;5.57;;;;;;;15.01;100.00;99299.34;1936259;73;24162;-76
2022/10/23 07:40:02;;;;;;;11.03;6.23;;;;;;;15.03;100.00;99311.55;1909446;74;26296;-75
2022/10/23 07:42:32;;;;;;;9.73;5.00;;;;;;;15.07;100.00;99295.69;1942442;74;26226;-75
2022/10/23 07:45:05;;;;;;;9.07;5.07;;;;;;;15.10;100.00;99276.83;1909683;74;24243;-76
2022/10/23 07:47:36;;;;;;;7.90;5.10;;;;;;;15.10;100.00;99276.02;1923144;74;26233;-76
2022/10/23 07:50:08;;;;;;;10.73;5.07;;;;;;;15.07;100.00;99267.73;1944727;72;24127;-75
2022/10/23 07:52:38;;;;;;;8.03;4.60;;;;;;;15.07;100.00;99267.73;1944469;74;24135;-75
2022/10/23 07:55:10;;;;;;;8.17;4.80;;;;;;;15.07;100.00;99259.92;1909832;74;24136;-76
2022/10/23 07:57:40;;;;;;;8.90;4.77;;;;;;;15.13;100.00;99262.71;1940850;74;24171;-75
2022/10/23 08:00:12;;;;;;;6.53;4.20;;;;;;;15.31;100.00;99249.49;1836733;74;24157;-75
2022/10/23 08:02:42;;;;;;;8.03;4.10;;;;;;;15.43;100.00;99236.84;1943550;72;26164;-76
2022/10/23 08:05:12;;;;;;;9.60;4.70;;;;;;;15.41;100.00;99217.37;1945158;72;26649;-75
2022/10/23 08:07:42;;;;;;;8.00;4.40;;;;;;;15.40;100.00;99209.55;1945302;72;24109;-75
2022/10/23 08:10:13;;;;;;;6.97;3.90;;;;;;;15.33;100.00;99202.95;1944798;72;24105;-76
2022/10/23 08:12:43;;;;;;;7.27;4.17;;;;;;;15.26;100.00;99225.96;1910796;74;24192;-75
2022/10/23 08:18:11;;;;;;;10.27;4.50;;;;;;;15.41;100.00;99209.80;2055770;69;26067;-76
2022/10/23 08:20:43;;;;;;;9.67;4.60;;;;;;;15.42;100.00;99246.40;1971424;72;24180;-76
2022/10/23 08:23:15;;;;;;;7.07;4.07;;;;;;;15.33;100.00;99256.11;1979782;72;24174;-77
2022/10/23 08:28:43;;;;;;;6.40;3.70;;;;;;;15.27;100.00;99272.93;2055490;69;25708;-74
2022/10/23 08:31:16;;;;;;;6.07;3.23;;;;;;;15.18;100.00;99287.64;1923630;72;24141;-74
2022/10/23 08:33:46;;;;;;;3.67;2.90;;;;;;;15.18;100.00;99279.25;1945396;72;24149;-75
2022/10/23 08:36:20;;;;;;;5.60;2.90;;;;;;;15.15;100.00;99289.14;1944507;74;26213;-74
2022/10/23 08:38:52;;;;;;;6.20;2.97;;;;;;;15.12;100.00;99308.62;1925427;74;24129;-74
2022/10/23 08:41:29;;;;;;;8.97;3.37;;;;;;;15.20;100.00;99278.30;1945024;72;24135;-74
2022/10/23 08:47:05;;;;;;;6.27;3.07;;;;;;;15.69;100.00;99245.38;2056899;69;26005;-76
2022/10/23 08:49:42;;;;;;;5.57;3.27;;;;;;;15.90;100.00;99263.56;2012359;70;24807;-76
2022/10/23 08:52:18;;;;;;;7.20;3.33;;;;;;;16.06;100.00;99255.17;2014645;71;24705;-75
2022/10/23 08:54:58;;;;;;;6.50;3.10;;;;;;;15.97;100.00;99236.33;2014676;71;24159;-75
2022/10/23 08:57:34;;;;;;;4.27;2.13;;;;;;;15.86;100.00;99186.25;2014916;71;24133;-76
2022/10/23 09:00:09;;;;;;;5.77;2.60;;;;;;;15.95;100.00;99153.28;1936091;74;24144;-75
2022/10/23 09:02:42;;;;;;;5.83;2.93;;;;;;;15.86;100.00;99163.27;1986585;71;26848;-75
2022/10/23 09:05:16;;;;;;;5.57;2.40;;;;;;;16.07;100.00;99164.38;1936002;74;24625;-75
2022/10/23 09:07:54;;;;;;;3.40;2.43;;;;;;;16.18;100.00;99150.03;2013076;71;24164;-76
2022/10/23 09:10:37;;;;;;;4.47;2.07;;;;;;;16.20;100.00;99167.30;2011818;71;24668;-76
2022/10/23 09:13:17;;;;;;;5.73;2.03;;;;;;;16.27;100.00;99153.45;1989482;71;26651;-76
2022/10/23 09:18:48;;;;;;;7.30;2.50;;;;;;;16.16;100.00;99138.98;2055388;69;26065;-74
2022/10/23 09:21:19;;;;;;;4.40;2.20;;;;;;;16.05;100.00;99153.30;1979548;72;24089;-74
2022/10/23 09:23:49;;;;;;;3.27;1.70;;;;;;;15.97;100.00;99149.52;1945364;72;24109;-74
2022/10/23 09:26:20;;;;;;;4.03;1.80;;;;;;;15.83;100.00;99161.16;1983227;72;26716;-73
2022/10/23 09:28:54;;;;;;;7.27;2.00;;;;;;;15.80;100.00;99147.90;1979421;72;24174;-74
2022/10/23 09:31:24;;;;;;;2.50;1.60;;;;;;;15.76;100.00;99140.58;1978007;72;24187;-74
2022/10/23 09:33:59;;;;;;;3.43;1.53;;;;;;;15.81;100.00;99148.71;1915103;72;24172;-74
2022/10/23 09:39:31;;;;;;;3.60;1.57;;;;;;;15.84;100.00;99129.20;2055072;69;25952;-75
2022/10/23 09:42:02;;;;;;;6.23;1.63;;;;;;;15.80;100.00;99148.48;1979595;72;24085;-76
2022/10/23 09:44:34;;;;;;;3.50;1.20;;;;;;;15.78;100.00;99152.24;1945369;72;24167;-74
2022/10/23 09:47:11;;;;;;;4.20;1.40;;;;;;;15.78;100.00;99151.66;1925217;74;24665;-75
2022/10/23 09:49:43;;;;;;;5.57;1.30;;;;;;;15.76;100.00;99145.59;1978378;72;26661;-74
2022/10/23 09:52:25;;;;;;;2.57;0.87;;;;;;;15.74;100.00;99156.36;1905381;74;24473;-74
2022/10/23 09:54:58;;;;;;;4.17;1.40;;;;;;;15.85;100.00;99151.02;1944237;72;24140;-74
2022/10/23 09:57:32;;;;;;;3.73;1.30;;;;;;;15.85;100.00;99145.41;1979501;72;24149;-74
2022/10/23 10:00:05;;;;;;;3.77;1.30;;;;;;;15.79;100.00;99143.47;1979643;72;24112;-74
2022/10/23 10:02:36;;;;;;;4.73;1.50;;;;;;;15.85;100.00;99145.41;1978359;72;24125;-74
2022/10/23 10:05:24;;;;;;;3.10;1.57;;;;;;;15.86;100.00;99145.65;1944491;72;24967;-74
2022/10/23 10:07:58;;;;;;;5.77;1.73;;;;;;;15.89;100.00;99149.12;1910721;74;24204;-74
2022/10/23 10:10:33;;;;;;;3.63;1.67;;;;;;;15.90;100.00;99150.16;1944429;73;24131;-74
2022/10/23 10:13:06;;;;;;;4.63;1.90;;;;;;;15.93;100.00;99157.83;1909047;74;24157;-74
2022/10/23 10:15:41;;;;;;;3.77;2.10;;;;;;;15.93;100.00;99155.61;1938137;73;24679;-74
2022/10/23 10:21:17;;;;;;;4.60;1.60;;;;;;;16.00;100.00;99140.99;2056753;69;26017;-74
2022/10/23 10:23:50;;;;;;;2.33;1.60;;;;;;;15.94;100.00;99169.27;2019651;70;24183;-73
2022/10/23 10:26:28;;;;;;;5.47;1.70;;;;;;;15.92;100.00;99170.78;2014637;71;24178;-73
2022/10/23 10:32:13;;;;;;;3.07;1.70;;;;;;;16.31;100.00;99171.16;2057088;69;25309;-75
2022/10/23 10:34:47;;;;;;;4.97;1.47;;;;;;;16.44;100.00;99202.69;2016572;70;24124;-74
2022/10/23 10:37:23;;;;;;;1.87;1.20;;;;;;;16.51;100.00;99204.86;2017536;70;24129;-75
2022/10/23 10:39:57;;;;;;;4.67;1.23;;;;;;;16.72;100.00;99206.78;2004446;70;24156;-74
2022/10/23 10:42:39;;;;;;;4.23;1.33;;;;;;;17.04;100.00;99208.28;2008954;70;24237;-73
2022/10/23 10:45:22;;;;;;;3.70;1.30;;;;;;;16.70;100.00;99195.92;1990448;71;24153;-75
2022/10/23 10:48:02;;;;;;;3.73;1.23;;;;;;;16.96;100.00;99209.31;1989724;70;24722;-75
2022/10/23 10:50:35;;;;;;;4.00;1.23;;;;;;;16.93;100.00;99197.44;2015974;70;24253;-74
2022/10/23 10:53:08;;;;;;;2.30;0.97;;;;;;;17.15;100.00;99207.94;2013137;70;24253;-76
2022/10/23 10:55:41;;;;;;;1.83;1.20;;;;;;;16.94;100.00;99196.84;2003185;70;24267;-75
2022/10/23 10:58:15;;;;;;;2.67;1.10;;;;;;;17.28;100.00;99194.56;2007900;70;24209;-75
2022/10/23 11:00:48;;;;;;;2.30;1.00;;;;;;;16.94;100.00;99180.02;1981780;71;24191;-76
2022/10/23 11:03:24;;;;;;;3.27;1.00;;;;;;;17.02;100.00;99175.59;2024993;70;24164;-76
2022/10/23 11:05:57;;;;;;;3.23;1.10;;;;;;;16.96;100.00;99163.03;2016419;70;24203;-75
2022/10/23 11:08:32;;;;;;;2.10;0.87;;;;;;;16.83;100.00;99148.93;1977725;71;24192;-75
2022/10/23 11:11:06;;;;;;;2.97;1.20;;;;;;;17.09;100.00;99160.30;2004517;70;24202;-75
2022/10/23 11:13:39;;;;;;;3.00;1.10;;;;;;;17.56;100.00;99162.02;1971681;71;24208;-75
2022/10/23 11:19:19;;;;;;;2.73;1.10;;;;;;;17.24;100.00;99140.37;2055849;69;25556;-75
2022/10/23 11:21:55;;;;;;;1.80;0.80;;;;;;;17.82;100.00;99153.70;1977606;72;24137;-77
2022/10/23 11:24:56;;;;;;;1.60;1.00;;;;;;;17.10;100.00;99130.27;1906607;74;24700;-75
2022/10/23 11:27:37;;;;;;;2.57;0.90;;;;;;;17.37;100.00;99130.58;1977093;71;24188;-78
2022/10/23 11:30:23;;;;;;;3.03;1.00;;;;;;;17.39;100.00;99118.98;1979204;72;24733;-75
2022/10/23 11:33:47;;;;;;;2.77;0.93;;;;;;;17.68;100.00;99114.12;1944292;72;24206;-75
2022/10/23 11:36:21;;;;;;;2.27;0.93;;;;;;;17.21;100.00;99104.62;1944280;72;24133;-75
2022/10/23 11:38:57;;;;;;;3.33;0.80;;;;;;;16.87;100.00;99076.91;1974568;72;24160;-76
2022/10/23 11:41:28;;;;;;;2.73;0.70;;;;;;;17.27;100.00;99089.11;1944900;72;24721;-76
2022/10/23 11:44:02;;;;;;;1.13;0.70;;;;;;;17.19;100.00;99079.76;1944434;74;24132;-76
2022/10/23 11:46:34;;;;;;;3.77;0.90;;;;;;;17.24;100.00;99084.25;1937417;74;24146;-77
2022/10/23 11:49:05;;;;;;;2.23;0.80;;;;;;;17.50;100.00;99068.86;1889314;74;24196;-75
2022/10/23 11:51:37;;;;;;;0.90;0.70;;;;;;;17.38;100.00;99057.83;1909052;74;24147;-78
2022/10/23 11:54:24;;;;;;;2.27;0.63;;;;;;;17.48;100.00;99049.38;1944292;74;24132;-74
2022/10/23 11:57:10;;;;;;;2.57;0.70;;;;;;;17.51;100.00;99050.03;1925152;74;24216;-75
2022/10/23 11:59:55;;;;;;;1.73;0.83;;;;;;;17.21;100.00;99035.88;1942615;74;24139;-77
2022/10/23 12:02:32;;;;;;;2.27;0.80;;;;;;;17.26;100.00;99022.94;1976747;72;24164;-76
2022/10/23 12:05:06;;;;;;;2.53;0.70;;;;;;;17.24;100.00;99007.88;1944439;72;24190;-75
2022/10/23 12:07:40;;;;;;;1.60;0.80;;;;;;;17.25;100.00;98998.87;1944150;74;24193;-76
2022/10/23 12:10:22;;;;;;;1.93;0.70;;;;;;;17.25;100.00;98992.66;1925158;74;24134;-76
2022/10/23 12:12:58;;;;;;;1.60;0.77;;;;;;;17.21;100.00;98981.98;1979494;72;24115;-76
2022/10/23 12:15:29;;;;;;;2.23;0.70;;;;;;;17.35;100.00;98972.18;1926909;73;24173;-76
2022/10/23 12:18:14;;;;;;;2.13;0.77;;;;;;;17.53;100.00;98960.06;1910849;74;24200;-77
2022/10/23 12:20:49;;;;;;;3.10;0.80;;;;;;;17.52;100.00;98962.64;1944472;74;24104;-76
2022/10/23 12:23:54;;;;;;;3.70;0.80;;;;;;;17.93;100.00;98941.20;1909664;74;24143;-76
2022/10/23 12:26:51;;;;;;;1.43;0.60;;;;;;;17.89;100.00;98924.89;1942194;74;24130;-76
2022/10/23 12:29:28;;;;;;;2.47;0.70;;;;;;;17.77;100.00;98904.66;1943706;74;24215;-75
2022/10/23 12:32:02;;;;;;;2.13;0.70;;;;;;;17.51;100.00;98878.80;1903918;75;24139;-74
2022/10/23 12:34:38;;;;;;;1.30;0.70;;;;;;;17.43;100.00;98867.27;1915948;73;24124;-74
2022/10/23 12:37:29;;;;;;;1.10;0.53;;;;;;;17.38;100.00;98866.99;1943398;74;24175;-75
2022/10/23 12:40:00;;;;;;;1.97;0.70;;;;;;;17.42;100.00;98859.44;1907594;75;26725;-74
2022/10/23 12:42:31;;;;;;;2.20;0.80;;;;;;;17.41;100.00;98852.23;1944947;73;24169;-74
2022/10/23 12:45:04;;;;;;;3.43;0.77;;;;;;;17.79;100.00;98849.76;1943597;74;24138;-74
2022/10/23 12:47:34;;;;;;;2.73;0.70;;;;;;;18.02;100.00;98832.16;1943714;74;24126;-74
2022/10/23 12:50:06;;;;;;;1.77;0.63;;;;;;;17.74;100.00;98810.78;1910259;74;25016;-77
2022/10/23 12:52:38;;;;;;;1.83;0.73;;;;;;;17.96;100.00;98794.39;1941581;74;24177;-77
2022/10/23 12:55:15;;;;;;;2.40;0.80;;;;;;;18.07;100.00;98765.00;1910749;74;24140;-75
2022/10/23 12:57:45;;;;;;;3.20;0.80;;;;;;;17.91;100.00;98765.24;1910087;74;24142;-76
2022/10/23 13:00:21;;;;;;;2.40;0.80;;;;;;;17.94;100.00;98746.80;1909917;74;24130;-75
2022/10/23 13:03:00;;;;;;;2.65;0.72;;;;;;;18.06;100.00;98736.09;1943791;73;24134;-75
2022/10/23 13:05:32;;;;;;;4.53;0.73;;;;;;;18.25;100.00;98727.23;1943726;73;24917;-76
2022/10/23 13:08:03;;;;;;;2.23;0.80;;;;;;;18.20;100.00;98711.54;1909588;74;24126;-75
2022/10/23 13:13:32;;;;;;;2.07;0.60;;;;;;;18.64;100.00;98674.37;2055431;69;26024;-74